Time;durP1;ratioP1;P1;durP2;ratioP2;P2;SDS_P1;SDS_P2;PMS_P1;PMS_P2;Temp;Humidity;BMP_temperature;BMP_pressure;BME280_temperature;BME280_humidity;BME280_pressure;Samples;Min_cycle;Max_cycle;Signal;HPM_P1;HPM_P2
2022/01/06 00:01:40;;;;;;;;;25.33;25.33;;;;;7.01;57.47;101626.28;4960716;28;46304;-80
2022/01/06 00:04:05;;;;;;;;;30.33;27.33;;;;;7.29;57.55;101658.56;4956966;28;45362;-80
2022/01/06 00:06:36;;;;;;;;;25.33;22.00;;;;;7.06;57.13;101633.28;4956381;28;45268;-79
2022/01/06 00:09:01;;;;;;;;;28.67;26.67;;;;;7.23;57.57;101671.91;4956761;28;45472;-79
2022/01/06 00:11:27;;;;;;;;;33.33;28.00;;;;;6.98;57.72;101646.63;4963495;28;46607;-80
2022/01/06 00:14:00;;;;;;;;;25.33;22.33;;;;;7.19;57.49;101682.56;4960968;28;46582;-80
2022/01/06 00:24:21;;;;;;;;;29.33;24.00;;;;;7.09;57.63;101667.66;4975321;28;45715;-80
2022/01/06 00:26:48;;;;;;;;;29.67;25.67;;;;;6.98;57.86;101646.63;4975990;28;45381;-80
2022/01/06 00:29:15;;;;;;;;;24.00;23.00;;;;;7.11;57.53;101667.66;4976226;28;45392;-80
2022/01/06 00:31:40;;;;;;;;;26.67;24.00;;;;;7.13;57.55;101681.78;4960063;28;47575;-80
2022/01/06 00:34:10;;;;;;;;;27.33;25.67;;;;;6.97;57.46;101651.94;4956010;28;45334;-80
2022/01/06 00:36:35;;;;;;;;;30.33;29.00;;;;;7.12;57.63;101686.22;4957628;28;45488;-80
2022/01/06 00:39:00;;;;;;;;;26.33;24.67;;;;;7.04;57.77;101685.41;4975858;28;45523;-80
2022/01/06 00:41:26;;;;;;;;;23.00;21.33;;;;;6.93;58.21;101671.44;4975507;28;45455;-79
2022/01/06 00:43:51;;;;;;;;;26.67;26.67;;;;;6.15;58.07;101542.69;4975374;28;46420;-80
2022/01/06 00:46:16;;;;;;;;;22.33;21.67;;;;;6.85;58.07;101675.97;4974112;28;45519;-79
2022/01/06 00:48:41;;;;;;;;;31.33;26.67;;;;;6.71;57.82;101660.25;4975652;28;45627;-80
2022/01/06 00:51:09;;;;;;;;;30.33;27.00;;;;;6.80;58.12;101675.16;4975326;28;45418;-80
2022/01/06 00:53:34;;;;;;;;;34.00;30.00;;;;;6.92;58.04;101707.66;4974873;28;45427;-80
2022/01/06 00:55:59;;;;;;;;;35.50;31.50;;;;;6.90;58.06;101692.69;4974896;28;45330;-80
2022/01/06 00:58:25;;;;;;;;;34.75;31.00;;;;;6.75;58.29;101661.97;4975252;28;45400;-80
2022/01/06 01:00:50;;;;;;;;;29.00;25.00;;;;;6.54;58.17;101626.91;4971119;28;46191;-79
2022/01/06 01:03:20;;;;;;;;;29.00;28.00;;;;;6.92;58.86;101699.72;4955707;28;45369;-80
2022/01/06 01:05:49;;;;;;;;;32.33;29.00;;;;;6.91;58.05;101692.69;4960374;28;45542;-79
2022/01/06 01:08:14;;;;;;;;;37.00;30.75;;;;;6.92;58.54;101702.38;4974873;28;45351;-79
2022/01/06 01:10:41;;;;;;;;;31.25;29.50;;;;;6.71;57.97;101671.72;4968618;28;45574;-80
2022/01/06 01:13:12;;;;;;;;;39.50;35.00;;;;;6.84;58.11;101703.38;4972389;28;45431;-79
2022/01/06 01:15:45;;;;;;;;;37.50;26.25;;;;;6.83;58.47;101693.66;4974389;28;45388;-80
2022/01/06 01:18:11;;;;;;;;;29.00;26.25;;;;;6.84;58.71;101698.97;4975321;28;45461;-80
2022/01/06 01:20:36;;;;;;;;;34.50;28.25;;;;;6.84;58.38;101696.31;4974243;28;46015;-80
2022/01/06 01:23:01;;;;;;;;;28.25;25.00;;;;;6.54;58.38;101652.53;4974332;28;45393;-79
2022/01/06 01:25:27;;;;;;;;;25.67;23.67;;;;;6.75;58.63;101691.13;4975461;28;45424;-79
2022/01/06 01:27:55;;;;;;;;;23.00;22.00;;;;;6.52;58.00;101656.97;4974976;28;45557;-79
2022/01/06 01:30:22;;;;;;;;;23.33;21.00;;;;;6.63;58.71;101675.41;4974200;28;45476;-80
2022/01/06 01:32:51;;;;;;;;;25.00;21.67;;;;;6.78;58.76;101708.75;4974785;28;45386;-79
2022/01/06 01:35:17;;;;;;;;;24.33;21.33;;;;;6.77;58.57;101702.59;4974582;28;45462;-80
2022/01/06 01:37:43;;;;;;;;;26.33;24.00;;;;;6.66;58.80;101696.53;4975090;28;45404;-79
2022/01/06 01:40:10;;;;;;;;;24.00;24.00;;;;;6.46;59.07;101657.03;4974600;28;46093;-80
2022/01/06 01:42:36;;;;;;;;;28.33;24.33;;;;;6.53;58.81;101677.25;4974462;28;45393;-79
2022/01/06 01:45:03;;;;;;;;;23.33;23.33;;;;;6.70;58.65;101712.38;4972239;28;45378;-80
2022/01/06 01:47:32;;;;;;;;;28.25;25.50;;;;;6.69;59.06;101712.38;4974880;28;45267;-80
2022/01/06 01:50:12;;;;;;;;;29.00;27.67;;;;;6.64;59.12;101711.56;4973908;28;45947;-80
2022/01/06 01:52:57;;;;;;;;;31.75;28.75;;;;;6.32;58.41;101662.47;4974374;28;45216;-80
2022/01/06 01:55:25;;;;;;;;;32.25;30.50;;;;;6.46;58.98;101696.75;4974545;28;45353;-80
2022/01/06 01:57:52;;;;;;;;;30.75;29.00;;;;;6.62;59.00;101726.59;4973707;28;45504;-79
2022/01/06 02:00:19;;;;;;;;;37.25;32.00;;;;;6.61;58.98;101732.81;4973692;28;45472;-80
2022/01/06 02:02:44;;;;;;;;;33.00;29.00;;;;;6.38;58.93;101698.63;4973737;28;45476;-80
2022/01/06 02:05:10;;;;;;;;;32.50;28.75;;;;;6.44;58.68;101702.09;4973098;28;45930;-79
2022/01/06 02:07:39;;;;;;;;;18.67;13.33;;;;;6.18;59.03;101662.66;4975027;28;45532;-80
2022/01/06 02:10:05;;;;;;;;;28.25;26.75;;;;;6.54;58.80;101726.69;4974018;28;46094;-80
2022/01/06 02:12:34;;;;;;;;;31.50;30.00;;;;;6.20;59.15;101667.91;4974050;28;45444;-80
2022/01/06 02:14:59;;;;;;;;;29.75;28.25;;;;;6.50;59.18;101733.78;4970106;28;45559;-80
2022/01/06 02:17:25;;;;;;;;;31.75;29.50;;;;;6.44;59.20;101727.66;4955694;28;45500;-80
2022/01/06 02:19:58;;;;;;;;;24.33;22.67;;;;;5.91;59.19;101639.97;4957596;28;45469;-80
2022/01/06 02:22:23;;;;;;;;;27.00;22.67;;;;;6.48;59.23;101742.63;4976061;28;45439;-80
2022/01/06 02:24:50;;;;;;;;;26.33;24.00;;;;;6.31;59.36;101716.34;4976981;28;45325;-79
2022/01/06 02:27:16;;;;;;;;;13.00;13.00;;;;;6.42;59.59;101746.25;4977591;28;45214;-80
2022/01/06 02:29:42;;;;;;;;;27.67;21.67;;;;;6.20;59.25;101705.84;4976971;28;45483;-80
2022/01/06 02:32:10;;;;;;;;;24.33;23.67;;;;;6.04;59.35;101680.44;4976616;28;45334;-80
2022/01/06 02:34:35;;;;;;;;;25.00;25.00;;;;;6.37;59.36;101732.19;4977475;28;45616;-79
2022/01/06 02:37:02;;;;;;;;;27.50;25.50;;;;;6.01;59.16;101665.47;4975740;28;45469;-79
2022/01/06 02:39:27;;;;;;;;;27.00;20.67;;;;;6.36;59.26;101741.00;4977206;28;45492;-80
2022/01/06 02:41:52;;;;;;;;;23.00;21.00;;;;;5.86;59.30;101660.31;4976398;28;45388;-80
2022/01/06 02:44:20;;;;;;;;;26.67;23.67;;;;;6.04;59.55;101691.00;4977285;28;45412;-79
2022/01/06 02:46:45;;;;;;;;;27.67;24.00;;;;;6.29;59.89;101732.22;4977535;28;45413;-80
2022/01/06 02:49:12;;;;;;;;;27.67;23.33;;;;;5.42;59.41;101582.25;4971978;28;52538;-80
2022/01/06 02:51:39;;;;;;;;;27.00;25.33;;;;;6.16;59.67;101706.78;4957729;28;45368;-80
2022/01/06 02:54:05;;;;;;;;;24.67;23.00;;;;;6.33;59.38;101735.75;4957141;28;45489;-79
2022/01/06 02:56:32;;;;;;;;;24.33;24.00;;;;;6.03;59.79;101690.16;4956180;28;45370;-80
2022/01/06 02:58:57;;;;;;;;;19.00;18.00;;;;;6.34;59.84;101741.03;4970932;28;45506;-80
2022/01/06 03:01:22;;;;;;;;;31.00;20.67;;;;;6.23;59.47;101724.38;4976631;28;45475;-80
2022/01/06 03:03:48;;;;;;;;;23.67;20.33;;;;;6.37;59.84;101748.06;4973184;28;45385;-80
2022/01/06 03:06:13;;;;;;;;;20.67;19.67;;;;;6.46;60.16;101765.59;4974379;28;45462;-79
2022/01/06 03:08:38;;;;;;;;;19.00;18.00;;;;;6.36;59.85;101735.69;4976609;28;45606;-80
2022/01/06 03:11:04;;;;;;;;;18.67;18.00;;;;;6.54;59.92;101769.06;4976090;28;45811;-80
2022/01/06 03:13:29;;;;;;;;;22.67;20.67;;;;;6.58;59.83;101772.53;4970324;28;45663;-80
2022/01/06 03:15:56;;;;;;;;;19.33;18.00;;;;;6.31;59.85;101724.28;4957375;28;45625;-80
2022/01/06 03:18:21;;;;;;;;;16.00;16.00;;;;;6.35;60.14;101728.66;4957021;28;45665;-80
2022/01/06 03:20:46;;;;;;;;;19.00;18.33;;;;;6.44;60.08;101731.22;4962883;28;45763;-80
2022/01/06 03:23:11;;;;;;;;;24.33;19.00;;;;;6.68;59.90;101768.91;4967687;28;45663;-80
2022/01/06 03:25:37;;;;;;;;;24.00;20.67;;;;;6.45;59.45;101730.31;4970609;28;45626;-80
2022/01/06 03:28:02;;;;;;;;;22.00;16.00;;;;;6.68;59.12;101766.28;4956057;28;45724;-80
2022/01/06 03:30:28;;;;;;;;;19.00;17.00;;;;;6.46;59.27;101736.47;4957256;28;45389;-80
2022/01/06 03:32:54;;;;;;;;;25.00;20.00;;;;;6.39;59.42;101719.81;4975805;28;45550;-84
2022/01/06 03:35:23;;;;;;;;;20.00;17.67;;;;;6.44;59.72;101731.22;4976396;28;45467;-84
2022/01/06 03:37:49;;;;;;;;;24.33;20.00;;;;;6.65;59.15;101772.50;4974607;28;47242;-84
2022/01/06 03:40:15;;;;;;;;;18.33;16.00;;;;;6.38;59.67;101723.31;4975639;28;45864;-84
2022/01/06 03:42:41;;;;;;;;;25.33;19.33;;;;;6.37;59.35;101733.91;4976230;28;45262;-84
2022/01/06 03:45:09;;;;;;;;;21.33;20.33;;;;;6.66;59.23;101766.28;4976471;28;45263;-84
2022/01/06 03:47:35;;;;;;;;;20.00;18.33;;;;;6.51;59.63;101748.78;4975245;28;47055;-84
2022/01/06 03:50:00;;;;;;;;;16.67;16.67;;;;;6.47;59.50;101741.75;4976329;28;45361;-84
2022/01/06 03:52:25;;;;;;;;;17.33;16.00;;;;;6.41;59.79;101733.00;4976411;28;45804;-84
2022/01/06 03:54:54;;;;;;;;;16.33;16.33;;;;;6.58;59.45;101772.53;4976353;28;45389;-84
2022/01/06 03:57:20;;;;;;;;;21.00;16.00;;;;;6.63;59.75;101773.41;4964953;28;46144;-83
2022/01/06 03:59:45;;;;;;;;;19.33;14.67;;;;;6.63;59.42;101774.28;4964035;28;45354;-83
2022/01/06 04:02:10;;;;;;;;;15.67;13.33;;;;;6.39;59.71;101734.78;4970077;28;45764;-84
2022/01/06 04:04:36;;;;;;;;;15.67;13.33;;;;;6.67;59.52;101783.03;4957412;28;45223;-84
2022/01/06 04:07:01;;;;;;;;;14.33;14.00;;;;;6.68;59.66;101783.03;4969292;28;46033;-84
2022/01/06 04:09:26;;;;;;;;;20.67;15.33;;;;;6.68;59.48;101787.47;4975699;28;45592;-84
2022/01/06 04:11:52;;;;;;;;;18.33;13.67;;;;;6.62;59.75;101766.31;4976374;28;45469;-84
2022/01/06 04:14:17;;;;;;;;;18.33;16.67;;;;;6.52;59.66;101739.94;4963939;28;45306;-84
2022/01/06 04:16:42;;;;;;;;;14.33;13.00;;;;;6.75;59.92;101781.19;4956848;28;47050;-84
2022/01/06 04:19:09;;;;;;;;;13.00;13.00;;;;;6.75;59.85;101770.59;4963465;28;45491;-84
2022/01/06 04:21:34;;;;;;;;;14.33;12.33;;;;;6.54;59.28;101742.59;4976195;28;45461;-84
2022/01/06 04:24:00;;;;;;;;;16.00;12.00;;;;;6.69;59.58;101770.66;4975940;28;45463;-80
2022/01/06 04:26:26;;;;;;;;;14.00;12.67;;;;;6.74;59.60;101780.34;4970662;28;45571;-80
2022/01/06 04:28:52;;;;;;;;;14.67;14.67;;;;;6.61;59.29;101756.63;4977424;28;45464;-80
2022/01/06 04:31:17;;;;;;;;;14.33;12.67;;;;;6.54;59.65;101755.81;4962096;28;45580;-80
2022/01/06 04:33:43;;;;;;;;;15.67;12.00;;;;;6.69;59.30;101776.81;4956676;28;45476;-80
2022/01/06 04:36:08;;;;;;;;;17.00;12.33;;;;;6.69;59.41;101781.25;4967648;28;45362;-80
2022/01/06 04:38:36;;;;;;;;;14.33;12.00;;;;;6.46;59.78;101742.69;4972524;28;45465;-80
2022/01/06 04:41:02;;;;;;;;;14.00;11.67;;;;;6.65;59.31;101784.81;4954468;28;45420;-80
2022/01/06 04:43:27;;;;;;;;;11.00;9.67;;;;;6.46;59.33;101752.38;4955189;28;45439;-80
2022/01/06 04:45:53;;;;;;;;;12.67;12.00;;;;;6.64;59.75;101777.78;4955905;28;45889;-80
2022/01/06 04:48:18;;;;;;;;;16.33;12.00;;;;;6.45;59.57;101747.97;4954685;28;45310;-79
2022/01/06 04:50:43;;;;;;;;;12.00;12.00;;;;;6.59;59.34;101771.66;4975817;28;45412;-80
2022/01/06 04:53:09;;;;;;;;;12.00;12.00;;;;;6.58;59.82;101780.50;4975085;28;45432;-80
2022/01/06 04:55:34;;;;;;;;;13.33;12.00;;;;;6.21;59.65;101709.41;4975358;28;49657;-80
2022/01/06 04:58:00;;;;;;;;;14.67;12.67;;;;;6.54;59.38;101771.72;4974378;28;46567;-80
2022/01/06 05:00:25;;;;;;;;;12.00;12.00;;;;;6.47;59.69;101772.69;4956878;28;45471;-84
2022/01/06 05:02:51;;;;;;;;;11.33;11.33;;;;;6.50;59.92;101783.22;4956383;28;45366;-84
2022/01/06 05:05:16;;;;;;;;;11.00;10.00;;;;;6.18;59.89;101731.50;4956844;28;47204;-84
2022/01/06 05:07:42;;;;;;;;;16.33;12.33;;;;;6.43;59.99;101781.53;4975254;28;45583;-84
2022/01/06 05:10:09;;;;;;;;;20.00;12.67;;;;;6.48;60.15;101788.53;4973953;28;45599;-84
2022/01/06 05:12:45;;;;;;;;;10.67;10.67;;;;;6.43;59.85;101785.06;4975696;28;45484;-83
2022/01/06 05:15:13;;;;;;;;;14.33;12.67;;;;;6.21;59.91;101747.34;5022975;28;47403;-84
2022/01/06 05:17:39;;;;;;;;;16.33;14.00;;;;;6.45;60.13;101799.16;4955697;28;45413;-84
2022/01/06 05:20:05;;;;;;;;;14.67;13.00;;;;;6.30;60.14;101773.72;4967922;28;45359;-84
2022/01/06 05:22:31;;;;;;;;;13.67;9.67;;;;;6.55;60.41;101806.13;4975275;28;45556;-83
2022/01/06 05:24:57;;;;;;;;;14.33;13.67;;;;;6.58;59.94;101806.97;4974704;28;45420;-84
2022/01/06 05:27:22;;;;;;;;;12.67;10.67;;;;;6.58;60.33;101814.91;4974757;28;45436;-84
2022/01/06 05:29:48;;;;;;;;;14.00;12.33;;;;;6.38;59.94;101776.28;4975172;28;45406;-84
2022/01/06 05:32:13;;;;;;;;;11.67;11.00;;;;;6.39;59.72;101780.69;4975707;28;45369;-84
2022/01/06 05:34:38;;;;;;;;;13.00;11.00;;;;;6.64;60.19;101820.16;4974993;28;45329;-84
2022/01/06 05:37:04;;;;;;;;;15.67;12.33;;;;;6.66;59.54;101821.03;4973439;28;50452;-84
2022/01/06 05:39:29;;;;;;;;;12.67;12.00;;;;;6.48;59.74;101790.31;4975316;28;45310;-84
2022/01/06 05:41:55;;;;;;;;;19.00;14.67;;;;;6.29;59.58;101765.78;4975102;28;45325;-84
2022/01/06 05:44:21;;;;;;;;;14.00;13.00;;;;;6.52;59.53;101810.56;4974924;28;46546;-84
2022/01/06 05:46:47;;;;;;;;;18.33;13.33;;;;;6.50;59.60;101809.72;4973303;28;45473;-83
2022/01/06 05:49:14;;;;;;;;;18.00;15.00;;;;;6.69;59.23;101839.53;4974864;28;45374;-80
2022/01/06 05:51:40;;;;;;;;;12.33;12.33;;;;;6.21;59.10;101760.56;4975188;28;45425;-80
2022/01/06 05:54:05;;;;;;;;;14.67;12.67;;;;;6.42;59.23;101801.84;4977304;28;45621;-80
2022/01/06 05:56:31;;;;;;;;;12.67;12.67;;;;;6.44;59.18;101797.41;4977599;28;45397;-80
2022/01/06 05:58:57;;;;;;;;;16.33;15.33;;;;;6.60;58.84;101829.03;4975983;28;45448;-80
2022/01/06 06:01:22;;;;;;;;;20.67;16.33;;;;;6.11;59.19;101759.78;4976104;28;45609;-80
2022/01/06 06:03:49;;;;;;;;;18.33;16.33;;;;;6.24;58.94;101780.84;4976617;28;45555;-80
2022/01/06 06:06:15;;;;;;;;;18.67;16.00;;;;;6.37;58.77;101818.66;4976140;28;46116;-80
2022/01/06 06:08:40;;;;;;;;;17.00;14.00;;;;;6.47;58.73;101852.13;4972867;28;45554;-80
2022/01/06 06:11:06;;;;;;;;;18.00;15.67;;;;;6.46;59.14;101851.25;4976554;28;45584;-80
2022/01/06 06:13:31;;;;;;;;;20.33;16.33;;;;;6.26;58.91;101835.53;4970103;28;46503;-80
2022/01/06 06:15:57;;;;;;;;;19.00;16.00;;;;;6.38;59.24;101855.72;4972404;28;47402;-80
2022/01/06 06:18:22;;;;;;;;;16.67;14.00;;;;;6.26;59.15;101839.94;4971906;28;45502;-80
2022/01/06 06:20:47;;;;;;;;;17.33;13.67;;;;;6.31;59.48;101851.38;4969263;28;45372;-80
2022/01/06 06:23:13;;;;;;;;;18.00;15.67;;;;;6.36;58.82;101867.22;4976368;28;45473;-80
2022/01/06 06:25:38;;;;;;;;;18.67;17.33;;;;;6.00;59.55;101800.44;4971091;28;45488;-80
2022/01/06 06:28:03;;;;;;;;;19.00;16.00;;;;;6.34;59.22;101861.91;4974088;28;45558;-80
2022/01/06 06:30:29;;;;;;;;;20.33;17.67;;;;;6.24;59.68;101853.19;4975264;28;45434;-80
2022/01/06 06:32:54;;;;;;;;;22.00;20.67;;;;;5.88;59.16;101785.50;4973710;28;45385;-80
2022/01/06 06:35:19;;;;;;;;;18.00;16.67;;;;;6.40;59.57;101872.47;4976802;28;45440;-80
2022/01/06 06:37:45;;;;;;;;;20.33;18.33;;;;;6.44;59.07;101875.97;4974148;28;45346;-80
2022/01/06 06:40:11;;;;;;;;;20.00;18.67;;;;;6.35;59.53;101863.69;4967262;28;45574;-81
2022/01/06 06:42:37;;;;;;;;;19.67;18.33;;;;;6.47;59.57;101875.97;4970729;28;47722;-79
2022/01/06 06:45:03;;;;;;;;;18.33;17.67;;;;;6.51;59.53;101881.22;4972765;28;45447;-80
2022/01/06 06:47:29;;;;;;;;;17.00;17.00;;;;;6.53;59.38;101874.13;4964189;28;45588;-79
2022/01/06 06:49:56;;;;;;;;;12.33;11.33;;;;;6.49;59.47;101860.94;4974395;28;45556;-80
2022/01/06 06:52:21;;;;;;;;;20.67;20.67;;;;;6.60;58.98;101874.06;4975983;28;45940;-79
2022/01/06 06:54:48;;;;;;;;;21.67;20.33;;;;;6.60;58.91;101871.41;4960549;28;45752;-79
2022/01/06 06:57:13;;;;;;;;;22.00;19.33;;;;;6.55;59.34;101866.16;4957752;28;45492;-80
2022/01/06 06:59:39;;;;;;;;;24.33;20.67;;;;;6.62;58.88;101888.19;4968250;28;45416;-80
2022/01/06 07:02:05;;;;;;;;;25.33;20.00;;;;;6.65;59.12;101890.78;4973087;28;45353;-79
2022/01/06 07:04:30;;;;;;;;;26.33;22.67;;;;;6.66;59.37;101892.56;4957285;28;45560;-79
2022/01/06 07:06:55;;;;;;;;;24.33;21.00;;;;;6.41;58.72;101849.50;4971758;28;45420;-79
2022/01/06 07:09:20;;;;;;;;;23.33;21.00;;;;;6.03;59.27;101771.31;4968122;28;45483;-83
2022/01/06 07:11:46;;;;;;;;;22.00;22.00;;;;;6.48;59.02;101859.16;4976610;28;46257;-81
2022/01/06 07:14:11;;;;;;;;;26.00;23.00;;;;;5.97;59.07;101761.66;4966501;28;45381;-81
2022/01/06 07:16:36;;;;;;;;;23.67;19.67;;;;;6.76;59.18;101891.56;4962737;28;45422;-84
2022/01/06 07:19:02;;;;;;;;;23.33;23.33;;;;;6.82;58.65;101890.66;4957296;28;45362;-80
2022/01/06 07:21:27;;;;;;;;;25.33;23.67;;;;;6.71;58.94;101869.56;4970120;28;46285;-82
2022/01/06 07:23:53;;;;;;;;;23.33;20.33;;;;;6.52;58.88;101837.94;4971201;28;45530;-83
2022/01/06 07:26:19;;;;;;;;;21.33;21.33;;;;;6.85;58.81;101895.91;4958255;28;45665;-84
2022/01/06 07:28:44;;;;;;;;;19.67;19.67;;;;;6.86;58.75;101890.63;4974169;28;45404;-81
2022/01/06 07:31:10;;;;;;;;;24.67;20.67;;;;;6.87;58.85;101892.34;4968347;28;45801;-85
2022/01/06 07:33:36;;;;;;;;;17.33;17.33;;;;;6.54;59.06;101840.56;4970814;28;45728;-83
2022/01/06 07:36:02;;;;;;;;;23.67;19.67;;;;;6.76;59.32;101857.13;4966672;28;45543;-84
2022/01/06 07:38:27;;;;;;;;;18.00;18.00;;;;;6.61;58.99;101831.69;4960653;28;46557;-83
2022/01/06 07:40:54;;;;;;;;;22.00;19.33;;;;;6.94;58.86;101890.53;4964325;28;46446;-83
2022/01/06 07:43:19;;;;;;;;;18.00;16.67;;;;;6.71;59.17;101851.00;4976433;28;45424;-83
2022/01/06 07:45:45;;;;;;;;;20.67;20.33;;;;;7.03;59.52;101897.50;4976154;28;45397;-85
2022/01/06 07:48:18;;;;;;;;;25.00;20.33;;;;;7.05;58.97;101906.34;4962074;28;45449;-85
2022/01/06 07:50:46;;;;;;;;;17.67;17.67;;;;;7.07;59.02;101913.38;4957256;28;46052;-85
2022/01/06 07:53:11;;;;;;;;;23.33;23.00;;;;;6.86;59.14;101880.00;4956813;28;45485;-86
2022/01/06 07:55:37;;;;;;;;;31.00;23.67;;;;;7.14;58.97;101914.16;4957127;28;45391;-90
2022/01/06 07:58:03;;;;;;;;;25.33;20.00;;;;;6.67;58.76;101833.38;4957926;28;45409;-88
2022/01/06 08:00:29;;;;;;;;;23.00;21.33;;;;;7.13;59.36;101892.06;4958469;28;45516;-90
2022/01/06 08:02:54;;;;;;;;;28.00;22.00;;;;;6.34;58.86;101761.31;4974885;28;45348;-91
2022/01/06 08:05:24;;;;;;;;;24.67;22.00;;;;;6.54;59.06;101803.50;5060735;28;45395;-90
2022/01/06 08:07:49;;;;;;;;;23.00;20.00;;;;;6.80;58.88;101839.44;4977343;28;45416;-89
2022/01/06 08:10:15;;;;;;;;;21.00;19.00;;;;;7.28;58.49;101914.91;4975144;28;47113;-90
2022/01/06 08:12:40;;;;;;;;;26.00;23.00;;;;;6.16;58.83;101727.06;4977683;28;45178;-93
2022/01/06 08:15:07;;;;;;;;;33.25;32.75;;;;;6.54;58.74;101777.88;4975195;28;45375;-89
2022/01/06 08:17:33;;;;;;;;;47.75;40.75;;;;;6.97;58.14;101841.00;4976168;28;45274;-91
2022/01/06 08:19:58;;;;;;;;;28.75;25.75;;;;;6.58;58.33;101791.09;4975625;28;47586;-90
2022/01/06 08:22:24;;;;;;;;;23.67;19.67;;;;;7.42;58.73;101920.03;4975209;28;45427;-91
2022/01/06 08:24:52;;;;;;;;;28.67;25.33;;;;;7.44;58.46;101915.59;4974638;28;45327;-89
2022/01/06 08:27:17;;;;;;;;;23.67;20.00;;;;;6.15;58.38;101689.16;4977158;28;45464;-90
2022/01/06 08:29:43;;;;;;;;;26.00;24.33;;;;;6.97;58.19;101833.03;4975483;28;46897;-89
2022/01/06 08:32:08;;;;;;;;;23.67;23.67;;;;;6.58;58.78;101784.03;4975131;28;45938;-89
2022/01/06 08:34:34;;;;;;;;;23.00;23.00;;;;;6.72;57.93;101787.41;4975259;28;45429;-88
2022/01/06 08:37:00;;;;;;;;;25.67;23.67;;;;;6.87;58.28;101804.91;4971849;28;45476;-88
2022/01/06 08:39:25;;;;;;;;;23.67;23.67;;;;;6.79;58.31;101784.69;4956481;28;46305;-87
2022/01/06 08:41:52;;;;;;;;;25.00;24.67;;;;;6.82;58.28;101789.97;4955679;28;45561;-87
2022/01/06 08:44:17;;;;;;;;;21.33;21.33;;;;;6.96;57.65;101825.13;4958359;28;45330;-88
2022/01/06 08:46:43;;;;;;;;;35.67;28.33;;;;;7.69;57.67;101926.78;4962260;28;45445;-87
2022/01/06 08:49:11;;;;;;;;;22.33;20.67;;;;;7.44;57.83;101902.31;4960170;28;47372;-89
2022/01/06 08:51:38;;;;;;;;;24.33;22.33;;;;;7.26;57.33;101866.31;4960260;28;45673;-87
2022/01/06 08:54:04;;;;;;;;;31.33;26.67;;;;;7.80;57.86;101932.84;4965437;28;45389;-87
2022/01/06 08:56:29;;;;;;;;;24.33;20.33;;;;;7.81;57.83;101931.06;4965246;28;45478;-86
2022/01/06 08:58:55;;;;;;;;;27.33;25.00;;;;;6.60;57.85;101731.03;4962893;28;48322;-88
2022/01/06 09:01:20;;;;;;;;;31.67;29.67;;;;;6.62;57.59;101742.50;4970055;28;45774;-87
2022/01/06 09:03:46;;;;;;;;;37.50;32.00;;;;;7.51;57.69;101871.31;4968349;28;45462;-89
2022/01/06 09:06:11;;;;;;;;;52.00;42.75;;;;;7.46;57.83;101870.50;4968587;28;45553;-88
2022/01/06 09:08:36;;;;;;;;;49.75;41.25;;;;;7.05;57.37;101784.41;4964145;28;45963;-89
2022/01/06 09:11:02;;;;;;;;;48.25;34.25;;;;;7.46;57.92;101854.56;4967155;28;45455;-89
2022/01/06 09:13:27;;;;;;;;;23.50;23.50;;;;;7.46;57.59;101854.56;4966140;28;45446;-90
2022/01/06 09:15:53;;;;;;;;;27.75;26.00;;;;;7.66;57.71;101868.47;4961713;28;45447;-87
2022/01/06 09:18:19;;;;;;;;;32.75;31.75;;;;;7.76;57.27;101878.03;4959870;28;48204;-89
2022/01/06 09:20:44;;;;;;;;;24.50;23.75;;;;;6.91;57.58;101734.22;4978636;28;45515;-87
2022/01/06 09:23:09;;;;;;;;;34.00;32.00;;;;;7.14;57.71;101774.56;4965308;28;45523;-85
2022/01/06 09:25:35;;;;;;;;;29.00;29.00;;;;;7.59;57.15;101845.56;4962491;28;45604;-86
2022/01/06 09:28:00;;;;;;;;;34.00;32.50;;;;;8.16;57.51;101937.66;4966612;28;45879;-86
2022/01/06 09:30:26;;;;;;;;;43.00;34.00;;;;;8.15;57.42;101941.22;4959151;28;45564;-86
2022/01/06 09:32:53;;;;;;;;;40.00;34.25;;;;;8.24;57.73;101941.97;4977938;28;45499;-86
2022/01/06 09:35:19;;;;;;;;;37.00;32.75;;;;;8.08;57.84;101908.56;4969872;28;45306;-85
2022/01/06 09:37:44;;;;;;;;;32.00;30.25;;;;;7.66;57.50;101839.28;4959810;28;45513;-82
2022/01/06 09:40:10;;;;;;;;;28.75;25.25;;;;;8.35;57.97;101954.19;4980791;28;45357;-89
2022/01/06 09:42:36;;;;;;;;;23.67;20.67;;;;;8.37;57.29;101961.25;4967007;28;45351;-84
2022/01/06 09:45:04;;;;;;;;;36.33;29.67;;;;;8.43;57.02;101958.53;4968611;28;45706;-87
2022/01/06 09:47:30;;;;;;;;;34.50;28.50;;;;;7.73;57.13;101845.38;4962084;28;46765;-85
2022/01/06 09:49:56;;;;;;;;;28.67;27.33;;;;;8.49;57.00;101959.34;4964581;28;45516;-92
2022/01/06 09:52:22;;;;;;;;;27.67;21.33;;;;;8.00;56.87;101881.25;4974704;28;45195;-94
2022/01/06 09:54:48;;;;;;;;;30.67;26.00;;;;;7.02;56.72;101696.94;4965921;28;45374;-93
2022/01/06 09:57:14;;;;;;;;;32.33;28.33;;;;;8.05;57.08;101884.69;4974051;28;45512;-93
2022/01/06 09:59:44;;;;;;;;;29.33;26.67;;;;;8.58;56.82;101967.16;4969791;28;45484;-93
2022/01/06 10:02:16;;;;;;;;;32.00;31.33;;;;;7.01;56.72;101693.44;4972187;28;45424;-91
2022/01/06 10:04:45;;;;;;;;;26.67;26.00;;;;;8.63;57.20;101990.09;4961535;28;45582;-92
2022/01/06 10:07:10;;;;;;;;;23.67;20.33;;;;;8.38;57.28;101924.94;4959124;28;48153;-88
2022/01/06 10:09:38;;;;;;;;;24.67;23.00;;;;;7.87;56.59;101846.06;4966169;28;45456;-88
2022/01/06 10:12:11;;;;;;;;;28.33;24.00;;;;;8.72;56.47;101970.47;4966860;28;45513;-87
2022/01/06 10:14:44;;;;;;;;;21.33;20.00;;;;;7.58;56.04;101773.03;4960430;28;45523;-88
2022/01/06 10:17:12;;;;;;;;;24.67;22.00;;;;;8.23;56.62;101879.13;5041527;28;47554;-92
2022/01/06 10:19:43;;;;;;;;;19.33;18.00;;;;;8.41;56.28;101909.00;4959476;28;46283;-92
2022/01/06 10:22:18;;;;;;;;;23.33;21.67;;;;;7.37;55.52;101731.81;4966151;28;45401;-95
2022/01/06 10:24:44;;;;;;;;;25.67;23.67;;;;;8.87;55.80;101967.59;4966902;28;45412;-89
2022/01/06 10:27:12;;;;;;;;;27.00;20.33;;;;;8.49;55.87;101919.50;4963149;28;46125;-89
2022/01/06 10:29:46;;;;;;;;;28.67;27.33;;;;;8.22;56.01;101864.09;4962068;28;45646;-87
2022/01/06 10:32:14;;;;;;;;;30.00;26.00;;;;;7.47;56.04;101732.56;4968818;28;45417;-89
2022/01/06 10:34:42;;;;;;;;;30.25;28.25;;;;;7.32;55.73;101707.13;4959978;28;45524;-88
2022/01/06 10:37:21;;;;;;;;;28.33;24.00;;;;;8.57;55.79;101921.13;4959321;28;45603;-85
2022/01/06 10:39:48;;;;;;;;;36.67;29.33;;;;;7.94;55.61;101809.69;4968782;28;45465;-89
2022/01/06 10:42:14;;;;;;;;;31.50;27.75;;;;;7.50;55.33;101718.38;4976021;28;45382;-90
2022/01/06 10:45:07;;;;;;;;;18.00;18.00;;;;;8.87;55.33;101941.00;4970905;28;45564;-92
2022/01/06 10:47:35;;;;;;;;;23.67;18.67;;;;;7.72;55.45;101727.72;4973836;28;45657;-89
2022/01/06 10:50:22;;;;;;;;;25.67;24.00;;;;;8.60;54.70;101859.06;4974091;28;45495;-86
2022/01/06 10:52:50;;;;;;;;;25.00;23.00;;;;;9.05;54.52;101920.28;4992565;28;45310;-88
2022/01/06 10:55:22;;;;;;;;;26.00;22.33;;;;;9.05;54.83;101907.00;4968365;28;45690;-88
2022/01/06 10:58:07;;;;;;;;;27.67;26.33;;;;;9.41;54.23;101953.31;4964329;28;45674;-86
2022/01/06 11:00:39;;;;;;;;;25.33;24.00;;;;;8.63;54.57;101805.88;4967048;28;45586;-95
2022/01/06 11:03:22;;;;;;;;;23.00;22.00;;;;;8.98;54.37;101844.19;4964815;28;45466;-90
2022/01/06 11:05:53;;;;;;;;;27.00;25.67;;;;;9.53;54.24;101933.56;4971704;28;45599;-87
2022/01/06 11:08:21;;;;;;;;;16.67;12.33;;;;;8.94;53.28;101810.59;4973063;28;45376;-89
2022/01/06 11:13:41;;;;;;;;;21.00;19.67;;;;;9.07;53.67;101834.25;5010773;28;45308;-87
2022/01/06 11:16:12;;;;;;;;;15.33;14.33;;;;;9.39;53.58;101885.94;5014687;28;45648;-89
2022/01/06 11:18:40;;;;;;;;;26.33;21.67;;;;;8.70;53.34;101759.66;5005060;28;45952;-89
2022/01/06 11:21:16;;;;;;;;;20.67;19.00;;;;;9.32;53.36;101870.09;5007889;28;45556;-90
2022/01/06 11:23:41;;;;;;;;;21.33;21.33;;;;;8.80;54.15;101773.63;5005195;28;45534;-91
2022/01/06 11:26:12;;;;;;;;;23.00;20.67;;;;;9.69;52.97;101919.03;5017673;28;45420;-90